Time;durP1;ratioP1;P1;durP2;ratioP2;P2;SDS_P1;SDS_P2;PMS_P1;PMS_P2;Temp;Humidity;BMP_temperature;BMP_pressure;BME280_temperature;BME280_humidity;BME280_pressure;Samples;Min_cycle;Max_cycle;Signal;HPM_P1;HPM_P2
2021/03/18 00:00:00;;;;;;;8.52;6.68;;;3.80;99.90;;;;;;4880606;29;20201;-76
2021/03/18 00:02:27;;;;;;;7.07;5.90;;;3.80;99.90;;;;;;4876173;29;20267;-76
2021/03/18 00:04:54;;;;;;;8.65;6.13;;;3.70;99.90;;;;;;4867863;29;20222;-76
2021/03/18 00:07:20;;;;;;;8.80;6.55;;;3.70;99.90;;;;;;4864176;29;20253;-76
2021/03/18 00:09:47;;;;;;;6.78;6.07;;;3.70;99.90;;;;;;4864125;29;20680;-76
2021/03/18 00:12:13;;;;;;;9.20;7.53;;;3.70;99.90;;;;;;4865250;29;20302;-76
2021/03/18 00:14:40;;;;;;;7.45;6.78;;;3.80;99.90;;;;;;4862357;29;20234;-76
2021/03/18 00:17:06;;;;;;;7.70;5.85;;;3.80;99.90;;;;;;4866781;29;20226;-76
2021/03/18 00:19:33;;;;;;;8.07;6.40;;;3.70;99.90;;;;;;4862230;29;20329;-76
2021/03/18 00:21:59;;;;;;;10.60;7.10;;;3.70;99.90;;;;;;4861780;29;20219;-76
2021/03/18 00:24:26;;;;;;;7.65;6.45;;;3.70;99.90;;;;;;4866473;29;20215;-76
2021/03/18 00:26:53;;;;;;;8.00;6.28;;;3.70;99.90;;;;;;4855778;29;20313;-76
2021/03/18 00:29:19;;;;;;;9.57;7.03;;;3.70;99.90;;;;;;4867699;29;20188;-76
2021/03/18 00:31:54;;;;;;;7.75;7.00;;;3.70;99.90;;;;;;4861560;29;20239;-76
2021/03/18 00:34:21;;;;;;;7.35;6.38;;;3.70;99.90;;;;;;4875937;29;20278;-76
2021/03/18 00:36:48;;;;;;;8.50;7.70;;;3.80;99.90;;;;;;4874854;29;20247;-76
2021/03/18 00:39:15;;;;;;;8.00;6.50;;;3.80;99.90;;;;;;4877497;29;20230;-76
2021/03/18 00:41:41;;;;;;;11.00;7.20;;;3.80;99.90;;;;;;4877935;29;20220;-76
2021/03/18 00:44:08;;;;;;;8.85;7.65;;;3.70;99.90;;;;;;4861983;29;20226;-76
2021/03/18 00:46:35;;;;;;;9.38;7.85;;;3.70;99.90;;;;;;4865463;29;20187;-76
2021/03/18 00:49:03;;;;;;;12.57;7.90;;;3.70;99.90;;;;;;4869534;29;20223;-76
2021/03/18 00:51:29;;;;;;;10.63;8.63;;;3.70;99.90;;;;;;4862570;29;20285;-76
2021/03/18 00:53:56;;;;;;;9.80;8.90;;;3.70;99.90;;;;;;4862833;29;20242;-76
2021/03/18 00:56:23;;;;;;;9.75;8.07;;;3.70;99.90;;;;;;4879119;29;20218;-76
2021/03/18 00:58:59;;;;;;;10.18;8.43;;;3.80;99.90;;;;;;4865377;29;20226;-76
2021/03/18 01:01:27;;;;;;;11.38;8.55;;;3.70;99.90;;;;;;4846689;29;20194;-76
2021/03/18 01:03:56;;;;;;;9.20;7.95;;;3.70;99.90;;;;;;4870557;29;20225;-76
2021/03/18 01:06:25;;;;;;;12.23;9.38;;;3.70;99.90;;;;;;4871047;29;20570;-76
2021/03/18 01:08:55;;;;;;;13.70;9.13;;;3.70;99.90;;;;;;4866960;29;20446;-77
2021/03/18 01:11:24;;;;;;;9.85;8.38;;;3.70;99.90;;;;;;4870235;29;20611;-76
2021/03/18 01:13:55;;;;;;;10.00;8.93;;;3.70;99.90;;;;;;4868600;29;20274;-76
2021/03/18 01:16:28;;;;;;;10.93;8.77;;;3.70;99.90;;;;;;4875071;29;20490;-76
2021/03/18 01:19:05;;;;;;;8.10;7.30;;;3.70;99.90;;;;;;4861312;29;20227;-76
2021/03/18 01:21:35;;;;;;;8.93;8.13;;;3.70;99.90;;;;;;4864097;29;20190;-76
2021/03/18 01:24:03;;;;;;;10.35;8.30;;;3.70;99.90;;;;;;4860818;29;20282;-76
2021/03/18 01:26:30;;;;;;;10.70;9.07;;;3.70;99.90;;;;;;4863994;29;20285;-76
2021/03/18 01:28:59;;;;;;;10.20;9.15;;;3.80;99.90;;;;;;4871430;29;20230;-76
2021/03/18 01:31:27;;;;;;;11.85;8.52;;;3.70;99.90;;;;;;4878071;29;20201;-76
2021/03/18 01:33:54;;;;;;;14.23;10.10;;;3.70;99.90;;;;;;4860486;29;20226;-76
2021/03/18 01:36:22;;;;;;;11.38;10.30;;;3.70;99.90;;;;;;4861069;29;20190;-76
2021/03/18 01:38:49;;;;;;;11.13;9.35;;;3.80;99.90;;;;;;4869923;29;20309;-76
2021/03/18 01:41:16;;;;;;;11.00;9.57;;;3.80;99.90;;;;;;4878188;29;20195;-76
2021/03/18 01:43:44;;;;;;;12.73;10.32;;;3.70;99.90;;;;;;4865040;29;20242;-76
2021/03/18 01:46:11;;;;;;;10.75;9.68;;;3.70;99.90;;;;;;4860674;29;20278;-76
2021/03/18 01:48:39;;;;;;;17.80;10.63;;;3.70;99.90;;;;;;4877740;29;20613;-76
2021/03/18 01:51:06;;;;;;;11.90;9.73;;;3.70;99.90;;;;;;4863995;29;20259;-76
2021/03/18 01:53:33;;;;;;;12.20;9.13;;;3.70;99.90;;;;;;4862889;29;20222;-76
2021/03/18 01:56:00;;;;;;;13.73;10.80;;;3.70;99.90;;;;;;4872672;29;20290;-76
2021/03/18 01:58:28;;;;;;;13.93;9.88;;;3.70;99.90;;;;;;4868552;29;20758;-76
2021/03/18 02:01:00;;;;;;;15.10;11.60;;;3.80;99.90;;;;;;4844225;29;20251;-76
2021/03/18 02:03:28;;;;;;;14.60;10.75;;;3.80;99.90;;;;;;4860572;29;20721;-76
2021/03/18 02:05:55;;;;;;;12.55;10.90;;;3.70;99.90;;;;;;4878897;29;20223;-77
2021/03/18 02:08:22;;;;;;;12.95;10.60;;;3.80;99.90;;;;;;4859445;29;20298;-76
2021/03/18 02:10:48;;;;;;;13.50;10.82;;;3.70;99.90;;;;;;4873599;29;20186;-76
2021/03/18 02:13:16;;;;;;;13.45;10.68;;;3.70;99.90;;;;;;4873577;29;20277;-76
2021/03/18 02:15:50;;;;;;;16.00;11.88;;;3.80;99.90;;;;;;4870597;29;20770;-76
2021/03/18 02:18:38;;;;;;;14.60;11.48;;;3.70;99.90;;;;;;4860593;29;20220;-76
2021/03/18 02:21:29;;;;;;;11.65;10.00;;;3.80;99.90;;;;;;4863274;29;20713;-76
2021/03/18 02:24:21;;;;;;;13.27;11.88;;;3.80;99.90;;;;;;4871992;29;20267;-76
2021/03/18 02:27:06;;;;;;;15.10;10.68;;;3.60;99.90;;;;;;4869479;29;20606;-76
2021/03/18 02:29:54;;;;;;;13.88;11.10;;;3.60;99.90;;;;;;4860456;29;20194;-76
2021/03/18 02:32:26;;;;;;;16.20;12.85;;;3.60;99.90;;;;;;4860353;29;20231;-76
2021/03/18 02:35:18;;;;;;;14.40;11.63;;;3.60;99.90;;;;;;4858616;29;20643;-76
2021/03/18 02:37:58;;;;;;;13.02;11.25;;;3.60;99.90;;;;;;4873752;29;20245;-76
2021/03/18 02:40:26;;;;;;;14.55;11.27;;;3.60;99.90;;;;;;4878022;29;20615;-76
2021/03/18 02:42:59;;;;;;;17.02;11.88;;;3.60;99.90;;;;;;4873350;29;20593;-76
2021/03/18 02:45:32;;;;;;;14.63;12.35;;;3.70;99.90;;;;;;4859709;29;20203;-76
2021/03/18 02:48:01;;;;;;;19.30;13.45;;;3.70;99.90;;;;;;4862804;29;20214;-76
2021/03/18 02:50:30;;;;;;;17.70;12.60;;;3.70;99.90;;;;;;4866969;29;20282;-76
2021/03/18 02:52:59;;;;;;;19.00;13.30;;;3.70;99.90;;;;;;4862213;29;20305;-76
2021/03/18 02:55:29;;;;;;;17.27;11.65;;;3.60;99.90;;;;;;4878072;29;20558;-76
2021/03/18 02:57:58;;;;;;;15.35;11.75;;;3.60;99.90;;;;;;4873645;29;20252;-76
2021/03/18 03:00:26;;;;;;;17.55;12.70;;;3.60;99.90;;;;;;4860164;29;20195;-76
2021/03/18 03:02:54;;;;;;;15.05;12.80;;;3.60;99.90;;;;;;4860148;29;20718;-76
2021/03/18 03:05:24;;;;;;;19.65;13.23;;;3.60;99.90;;;;;;4872617;29;20249;-76
2021/03/18 03:07:51;;;;;;;17.27;12.82;;;3.50;99.90;;;;;;4873195;29;20253;-76
2021/03/18 03:10:22;;;;;;;17.25;13.10;;;3.50;99.90;;;;;;4860513;29;20254;-76
2021/03/18 03:12:50;;;;;;;14.23;12.15;;;3.50;99.90;;;;;;4874814;29;20227;-76
2021/03/18 03:15:17;;;;;;;15.98;12.73;;;3.40;99.90;;;;;;4879846;29;20301;-76
2021/03/18 03:17:46;;;;;;;15.85;11.68;;;3.40;99.90;;;;;;4869026;29;20338;-76
2021/03/18 03:20:15;;;;;;;15.80;12.90;;;3.40;99.90;;;;;;4865656;29;20588;-76
2021/03/18 03:22:43;;;;;;;14.95;12.65;;;3.40;99.90;;;;;;4871847;29;20778;-76
2021/03/18 03:25:12;;;;;;;14.05;12.07;;;3.50;99.90;;;;;;4883956;29;20239;-76
2021/03/18 03:27:43;;;;;;;13.70;10.88;;;3.50;99.90;;;;;;4877788;29;20222;-76
2021/03/18 03:30:11;;;;;;;17.17;12.60;;;3.60;99.90;;;;;;4868631;29;20198;-76
2021/03/18 03:32:38;;;;;;;18.38;12.55;;;3.50;99.90;;;;;;4871199;29;20701;-76
2021/03/18 03:35:06;;;;;;;20.02;14.05;;;3.50;99.90;;;;;;4865366;29;20272;-76
2021/03/18 03:37:32;;;;;;;13.93;11.82;;;3.50;99.90;;;;;;4858996;29;20736;-76
2021/03/18 03:40:00;;;;;;;14.90;12.48;;;3.40;99.90;;;;;;4880002;29;20216;-76
2021/03/18 03:42:27;;;;;;;15.35;12.13;;;3.50;99.90;;;;;;4881026;29;20256;-76
2021/03/18 03:44:53;;;;;;;16.95;12.23;;;3.40;99.90;;;;;;4882247;29;20297;-76
2021/03/18 03:47:21;;;;;;;18.55;12.07;;;3.40;99.90;;;;;;4883184;29;20218;-76
2021/03/18 03:49:48;;;;;;;17.95;12.32;;;3.40;99.90;;;;;;4883651;29;20206;-76
2021/03/18 03:52:26;;;;;;;16.15;12.88;;;3.40;99.90;;;;;;4871345;29;20222;-76
2021/03/18 03:55:01;;;;;;;16.73;12.18;;;3.40;99.90;;;;;;4865782;29;20215;-76
2021/03/18 03:57:48;;;;;;;16.67;12.80;;;3.40;99.90;;;;;;4878689;29;20309;-76
2021/03/18 04:00:16;;;;;;;18.20;12.82;;;3.40;99.90;;;;;;4871534;29;20187;-76
2021/03/18 04:02:57;;;;;;;14.10;12.43;;;3.40;99.90;;;;;;4882294;29;20214;-76
2021/03/18 04:05:26;;;;;;;17.02;12.32;;;3.50;99.90;;;;;;4871414;29;20306;-76
2021/03/18 04:08:00;;;;;;;13.65;11.38;;;3.50;99.90;;;;;;4866659;29;20225;-76
2021/03/18 04:10:29;;;;;;;19.70;12.65;;;3.40;99.90;;;;;;4876957;29;20192;-76
2021/03/18 04:12:57;;;;;;;19.02;12.60;;;3.40;99.90;;;;;;4864716;29;20294;-76
2021/03/18 04:15:25;;;;;;;17.15;13.18;;;3.40;99.90;;;;;;4848773;29;20273;-76
2021/03/18 04:17:53;;;;;;;16.38;13.15;;;3.40;99.90;;;;;;4866835;29;20271;-76
2021/03/18 04:20:23;;;;;;;14.80;11.30;;;3.30;99.90;;;;;;4883075;29;20545;-76
2021/03/18 04:22:53;;;;;;;15.57;12.75;;;3.30;99.90;;;;;;4867927;29;20755;-76
2021/03/18 04:25:22;;;;;;;13.85;11.35;;;3.30;99.90;;;;;;4865822;29;20203;-76
2021/03/18 04:27:51;;;;;;;18.55;11.75;;;3.40;99.90;;;;;;4872779;29;20627;-77
2021/03/18 04:30:19;;;;;;;15.95;13.30;;;3.40;99.90;;;;;;4863769;29;20194;-76
2021/03/18 04:32:48;;;;;;;17.65;12.80;;;3.40;99.90;;;;;;4865840;29;20694;-77
2021/03/18 04:35:17;;;;;;;19.27;11.70;;;3.40;99.90;;;;;;4880623;29;20206;-76
2021/03/18 04:37:44;;;;;;;15.00;12.45;;;3.30;99.90;;;;;;4860612;29;20226;-76
2021/03/18 04:40:13;;;;;;;14.23;11.85;;;3.30;99.90;;;;;;4874548;29;20954;-76
2021/03/18 04:42:41;;;;;;;17.55;12.90;;;3.30;99.90;;;;;;4876182;29;20589;-76
2021/03/18 04:45:10;;;;;;;21.33;12.82;;;3.30;99.90;;;;;;4880444;29;20214;-77
2021/03/18 04:47:39;;;;;;;16.42;12.25;;;3.30;99.90;;;;;;4878935;29;20226;-77
2021/03/18 04:50:11;;;;;;;21.45;11.98;;;3.30;99.90;;;;;;4863453;29;20209;-76
2021/03/18 04:52:39;;;;;;;14.85;11.75;;;3.30;99.90;;;;;;4864891;29;20295;-77
2021/03/18 04:55:09;;;;;;;16.90;11.70;;;3.30;99.90;;;;;;4865824;29;20317;-77
2021/03/18 04:57:40;;;;;;;20.25;13.25;;;3.30;99.90;;;;;;4863091;29;20218;-76
2021/03/18 05:00:07;;;;;;;16.75;13.60;;;3.30;99.90;;;;;;4861474;29;20218;-76
2021/03/18 05:02:35;;;;;;;15.07;11.32;;;3.30;99.90;;;;;;4876443;29;20221;-76
2021/03/18 05:05:18;;;;;;;27.23;13.82;;;3.30;99.90;;;;;;4875791;29;20214;-77
2021/03/18 05:07:48;;;;;;;20.00;14.57;;;3.30;99.90;;;;;;4862806;29;20314;-77
2021/03/18 05:10:17;;;;;;;18.17;13.73;;;3.30;99.90;;;;;;4861201;29;20194;-76
2021/03/18 05:12:45;;;;;;;19.05;14.25;;;3.30;99.90;;;;;;4861952;29;20302;-77
2021/03/18 05:15:14;;;;;;;17.10;12.43;;;3.30;99.90;;;;;;4862226;29;20238;-77
2021/03/18 05:17:41;;;;;;;17.52;14.20;;;3.30;99.90;;;;;;4860861;29;20227;-77
2021/03/18 05:20:10;;;;;;;21.15;12.73;;;3.30;99.90;;;;;;4861207;29;20271;-76
2021/03/18 05:22:38;;;;;;;19.45;14.75;;;3.30;99.90;;;;;;4867388;29;20659;-77
2021/03/18 05:25:08;;;;;;;18.30;14.02;;;3.30;99.90;;;;;;4867447;29;20239;-76
2021/03/18 05:27:39;;;;;;;20.13;13.65;;;3.30;99.90;;;;;;4861297;29;20221;-77
2021/03/18 05:30:11;;;;;;;20.25;12.63;;;3.30;99.90;;;;;;4871937;29;20661;-76
2021/03/18 05:32:38;;;;;;;19.88;14.38;;;3.30;99.90;;;;;;4843916;29;20230;-77
2021/03/18 05:35:07;;;;;;;20.60;13.77;;;3.30;99.90;;;;;;4860075;29;20317;-77
2021/03/18 05:37:34;;;;;;;17.25;13.98;;;3.30;99.90;;;;;;4875501;29;20282;-76
2021/03/18 05:40:04;;;;;;;22.98;14.93;;;3.30;99.90;;;;;;4844674;29;20215;-76
2021/03/18 05:42:32;;;;;;;22.10;14.80;;;3.20;99.90;;;;;;4861920;29;20802;-76
2021/03/18 05:45:00;;;;;;;21.63;14.70;;;3.20;99.90;;;;;;4871507;29;20559;-76
2021/03/18 05:47:30;;;;;;;18.65;14.23;;;3.20;99.90;;;;;;4877273;29;20218;-77
2021/03/18 05:49:58;;;;;;;20.50;14.32;;;3.10;99.90;;;;;;4860962;29;20198;-77
2021/03/18 05:52:29;;;;;;;20.13;13.98;;;3.10;99.90;;;;;;4867149;29;20226;-76
2021/03/18 05:54:58;;;;;;;18.33;13.75;;;3.20;99.90;;;;;;4872924;29;20595;-76
2021/03/18 05:57:24;;;;;;;17.85;13.18;;;3.20;99.90;;;;;;4876711;29;20222;-76
2021/03/18 05:59:52;;;;;;;20.50;13.65;;;3.20;99.90;;;;;;4860435;29;20215;-77
2021/03/18 06:02:19;;;;;;;21.67;14.82;;;3.20;99.90;;;;;;4875957;29;20225;-76
2021/03/18 06:04:47;;;;;;;22.00;13.43;;;3.20;99.90;;;;;;4877793;29;20298;-77
2021/03/18 06:07:14;;;;;;;17.65;12.80;;;3.20;99.90;;;;;;4863131;29;20314;-77
2021/03/18 06:09:43;;;;;;;15.80;12.02;;;3.20;99.90;;;;;;4862538;29;20334;-76
2021/03/18 06:12:09;;;;;;;21.58;16.00;;;3.20;99.90;;;;;;4878057;29;20226;-77
2021/03/18 06:14:36;;;;;;;20.70;15.57;;;3.20;99.90;;;;;;4861385;29;20713;-77
2021/03/18 06:17:03;;;;;;;22.08;14.55;;;3.30;99.90;;;;;;4861280;29;20214;-77
2021/03/18 06:19:30;;;;;;;21.70;13.60;;;3.20;99.90;;;;;;4874973;29;20247;-77
2021/03/18 06:21:58;;;;;;;20.95;14.25;;;3.20;99.90;;;;;;4854726;29;20449;-77
2021/03/18 06:24:28;;;;;;;19.52;15.18;;;3.30;99.90;;;;;;4855549;29;20214;-77
2021/03/18 06:26:54;;;;;;;18.55;14.73;;;3.30;99.90;;;;;;4877855;29;20246;-77
2021/03/18 06:29:32;;;;;;;21.75;16.13;;;3.30;99.90;;;;;;4871545;29;20251;-76
2021/03/18 06:32:14;;;;;;;19.17;15.10;;;3.30;99.90;;;;;;4876727;29;20230;-77
2021/03/18 06:34:49;;;;;;;25.70;16.23;;;3.40;99.90;;;;;;4863902;29;20598;-76
2021/03/18 06:37:34;;;;;;;22.98;15.48;;;3.50;99.90;;;;;;4867306;29;20688;-77
2021/03/18 06:40:26;;;;;;;22.73;16.92;;;3.60;99.90;;;;;;4878534;29;20211;-76
2021/03/18 06:42:58;;;;;;;26.67;16.42;;;3.50;99.90;;;;;;4861912;29;20276;-77
2021/03/18 06:45:36;;;;;;;28.80;16.75;;;3.50;99.90;;;;;;4859814;29;20456;-77
2021/03/18 06:48:15;;;;;;;27.48;17.83;;;3.50;99.90;;;;;;4867579;29;20247;-76
2021/03/18 06:50:47;;;;;;;20.27;16.05;;;3.50;99.90;;;;;;4866924;29;20198;-76
2021/03/18 06:53:20;;;;;;;21.13;15.88;;;3.50;99.90;;;;;;4864561;29;20723;-76
2021/03/18 06:55:47;;;;;;;31.20;17.48;;;3.50;99.90;;;;;;4863075;29;20532;-76
2021/03/18 06:58:27;;;;;;;21.67;16.58;;;3.50;99.90;;;;;;4842649;29;20709;-77
2021/03/18 07:01:00;;;;;;;25.83;17.23;;;3.50;99.90;;;;;;4843079;29;20222;-76
2021/03/18 07:03:41;;;;;;;27.65;18.73;;;3.50;99.90;;;;;;4842624;29;20781;-76
2021/03/18 07:06:23;;;;;;;30.63;18.77;;;3.60;99.90;;;;;;4870353;29;20701;-77
2021/03/18 07:09:15;;;;;;;30.63;20.50;;;3.60;99.90;;;;;;4863986;29;20227;-77
2021/03/18 07:11:47;;;;;;;23.38;17.95;;;3.70;99.90;;;;;;4875425;29;20226;-77
2021/03/18 07:14:14;;;;;;;27.50;19.23;;;3.60;99.90;;;;;;4871168;29;20218;-77
2021/03/18 07:16:46;;;;;;;28.20;19.40;;;3.70;99.90;;;;;;4876138;29;20207;-76
2021/03/18 07:19:29;;;;;;;26.55;20.60;;;3.70;99.90;;;;;;4868619;29;20322;-77
2021/03/18 07:21:57;;;;;;;31.05;20.83;;;3.70;99.90;;;;;;4859174;29;20306;-77
2021/03/18 07:24:39;;;;;;;37.03;24.77;;;3.80;99.90;;;;;;4849365;29;20207;-77
2021/03/18 07:27:15;;;;;;;36.22;21.98;;;3.80;99.90;;;;;;4857481;29;20218;-77
2021/03/18 07:29:44;;;;;;;37.72;23.92;;;3.80;99.90;;;;;;4870055;29;20194;-77
2021/03/18 07:32:11;;;;;;;34.92;22.25;;;3.90;99.90;;;;;;4865407;29;20223;-77
2021/03/18 07:34:42;;;;;;;47.60;28.20;;;3.90;99.90;;;;;;4859193;29;20209;-76
2021/03/18 07:37:12;;;;;;;46.53;26.85;;;3.90;99.90;;;;;;4864621;29;20221;-77
2021/03/18 07:39:40;;;;;;;36.85;22.35;;;3.90;99.90;;;;;;4842717;29;20291;-76
2021/03/18 07:42:08;;;;;;;39.30;25.80;;;4.00;99.90;;;;;;4848334;29;20622;-77
2021/03/18 07:44:37;;;;;;;39.15;23.58;;;4.00;99.90;;;;;;4845291;29;20211;-77
2021/03/18 07:47:04;;;;;;;34.35;22.33;;;4.10;99.90;;;;;;4876970;29;20227;-77
2021/03/18 07:49:52;;;;;;;36.42;23.25;;;4.20;99.90;;;;;;4875726;29;20199;-76
2021/03/18 07:52:25;;;;;;;37.03;22.33;;;4.20;99.90;;;;;;4858907;29;20286;-76
2021/03/18 07:54:53;;;;;;;36.05;22.20;;;4.30;99.90;;;;;;4858238;29;20256;-76
2021/03/18 07:57:19;;;;;;;35.83;23.55;;;4.30;99.90;;;;;;4858575;29;20655;-76
2021/03/18 07:59:47;;;;;;;34.60;22.13;;;4.40;99.90;;;;;;4860982;29;20732;-76
2021/03/18 08:02:15;;;;;;;35.13;21.08;;;4.40;99.90;;;;;;4879467;29;20634;-76
2021/03/18 08:04:46;;;;;;;33.80;20.55;;;4.60;99.90;;;;;;4879451;29;20293;-76
2021/03/18 08:07:42;;;;;;;29.17;20.30;;;4.60;99.90;;;;;;4870745;29;20219;-77
2021/03/18 08:10:12;;;;;;;28.90;20.85;;;4.70;99.90;;;;;;4872782;29;20250;-76
2021/03/18 08:12:46;;;;;;;26.45;17.67;;;4.80;99.90;;;;;;4877144;29;20225;-76
2021/03/18 08:15:20;;;;;;;25.08;16.10;;;4.90;99.90;;;;;;4868876;29;20590;-77
2021/03/18 08:17:47;;;;;;;21.42;15.40;;;5.00;99.90;;;;;;4861433;29;20223;-76
2021/03/18 08:20:42;;;;;;;24.70;16.70;;;5.10;99.90;;;;;;4847110;29;20245;-76
2021/03/18 08:23:24;;;;;;;24.20;14.50;;;5.10;99.90;;;;;;4861538;29;20212;-76
2021/03/18 08:26:00;;;;;;;18.30;14.20;;;5.10;99.90;;;;;;4862937;29;20207;-76
2021/03/18 08:28:57;;;;;;;20.63;14.95;;;5.20;99.90;;;;;;4869029;29;20620;-76
2021/03/18 08:32:05;;;;;;;22.30;15.02;;;5.10;99.90;;;;;;4871669;29;20622;-76
2021/03/18 08:34:46;;;;;;;20.00;14.65;;;5.10;99.90;;;;;;4848061;29;20302;-76
2021/03/18 08:37:14;;;;;;;19.25;13.15;;;5.10;99.90;;;;;;4872656;29;20226;-76
2021/03/18 08:39:49;;;;;;;19.73;13.32;;;5.10;99.90;;;;;;4856997;29;20777;-76
2021/03/18 08:42:27;;;;;;;20.83;13.10;;;5.10;99.90;;;;;;4867551;29;20256;-76
2021/03/18 08:45:08;;;;;;;19.38;12.73;;;5.20;99.90;;;;;;4850933;29;20638;-76
2021/03/18 08:47:46;;;;;;;18.60;13.15;;;5.20;99.90;;;;;;4867126;29;20819;-76
2021/03/18 08:50:27;;;;;;;16.20;12.38;;;5.40;99.90;;;;;;4853561;29;20210;-76
2021/03/18 08:52:56;;;;;;;17.05;12.20;;;5.40;99.90;;;;;;4872749;29;20627;-76
2021/03/18 08:55:47;;;;;;;23.15;12.40;;;5.40;99.90;;;;;;4879477;29;20218;-76
2021/03/18 08:58:14;;;;;;;18.92;11.52;;;5.40;99.90;;;;;;4873529;29;20219;-76
2021/03/18 09:00:43;;;;;;;18.00;11.63;;;5.50;99.90;;;;;;4855927;29;20212;-76
2021/03/18 09:03:15;;;;;;;17.02;12.38;;;5.60;99.90;;;;;;4867313;29;20702;-76
2021/03/18 09:05:52;;;;;;;21.40;12.38;;;5.50;99.90;;;;;;4861372;29;20518;-76
2021/03/18 09:08:35;;;;;;;21.73;12.02;;;5.50;99.90;;;;;;4867354;29;20226;-76
2021/03/18 09:11:02;;;;;;;17.35;12.45;;;5.50;99.90;;;;;;4877722;29;20219;-76
2021/03/18 09:13:29;;;;;;;19.10;13.43;;;5.60;99.90;;;;;;4864580;29;20610;-76
2021/03/18 09:15:58;;;;;;;14.57;10.65;;;5.70;99.90;;;;;;4865397;29;20287;-76
2021/03/18 09:18:30;;;;;;;18.27;12.20;;;5.70;99.90;;;;;;4874712;29;20220;-76
2021/03/18 09:21:09;;;;;;;16.83;12.35;;;5.80;99.90;;;;;;4860429;29;20195;-76
2021/03/18 09:23:41;;;;;;;14.52;10.35;;;5.80;99.90;;;;;;4866782;29;20218;-76
2021/03/18 09:26:10;;;;;;;21.73;12.98;;;5.80;99.90;;;;;;4846703;29;20358;-76
2021/03/18 09:28:39;;;;;;;14.40;10.90;;;5.80;99.90;;;;;;4870887;29;20689;-76
2021/03/18 09:31:07;;;;;;;15.05;10.65;;;5.90;99.90;;;;;;4878438;29;20186;-76
2021/03/18 09:33:36;;;;;;;11.95;10.23;;;6.00;99.90;;;;;;4853321;29;20222;-76
2021/03/18 09:36:21;;;;;;;17.65;11.10;;;6.00;99.90;;;;;;4863574;29;20215;-76
2021/03/18 09:39:10;;;;;;;14.40;9.57;;;6.00;99.90;;;;;;4861684;29;20231;-76
2021/03/18 09:41:46;;;;;;;13.43;9.98;;;6.10;99.90;;;;;;4873039;29;20202;-77
2021/03/18 09:44:23;;;;;;;21.77;10.68;;;6.20;99.90;;;;;;4868858;29;20215;-76
2021/03/18 09:46:57;;;;;;;13.80;8.63;;;6.20;99.90;;;;;;4859955;29;20274;-76
2021/03/18 09:49:33;;;;;;;9.88;8.88;;;6.20;99.90;;;;;;4872887;29;20276;-76
2021/03/18 09:52:02;;;;;;;15.10;9.52;;;6.30;99.90;;;;;;4873743;29;20221;-76
2021/03/18 09:54:29;;;;;;;11.93;9.10;;;6.40;99.90;;;;;;4871884;29;20280;-76
2021/03/18 09:57:05;;;;;;;9.07;6.88;;;6.50;99.90;;;;;;4859590;29;20246;-76
2021/03/18 09:59:32;;;;;;;13.85;8.90;;;6.60;99.90;;;;;;4871517;29;20242;-76
2021/03/18 10:01:59;;;;;;;14.75;8.60;;;6.50;99.90;;;;;;4871988;29;20219;-76
2021/03/18 10:04:27;;;;;;;14.55;8.23;;;6.50;99.90;;;;;;4863903;29;20246;-76
2021/03/18 10:06:58;;;;;;;11.27;7.63;;;6.50;99.90;;;;;;4874139;29;20215;-76
2021/03/18 10:09:28;;;;;;;15.98;8.25;;;6.50;99.90;;;;;;4877862;29;20278;-76
2021/03/18 10:11:55;;;;;;;12.15;7.30;;;6.60;99.90;;;;;;4876534;29;20228;-76
2021/03/18 10:14:23;;;;;;;12.70;7.43;;;6.80;99.90;;;;;;4860367;29;20736;-76
2021/03/18 10:17:06;;;;;;;9.57;6.85;;;6.90;99.90;;;;;;4861257;29;20218;-76
2021/03/18 10:19:35;;;;;;;14.98;7.90;;;6.90;99.90;;;;;;4860024;29;20286;-76
2021/03/18 10:22:06;;;;;;;7.78;6.25;;;6.90;99.90;;;;;;4873200;29;20262;-76
2021/03/18 10:24:33;;;;;;;12.32;5.45;;;6.90;99.90;;;;;;4859527;29;20594;-76
2021/03/18 10:27:14;;;;;;;13.77;7.72;;;6.90;99.90;;;;;;4874977;29;20873;-76
2021/03/18 10:29:42;;;;;;;16.60;5.95;;;6.90;99.90;;;;;;4870000;29;20198;-76
2021/03/18 10:32:13;;;;;;;11.18;5.82;;;6.90;99.90;;;;;;4859423;29;20279;-76
2021/03/18 10:34:52;;;;;;;8.90;5.28;;;7.00;99.90;;;;;;4856944;29;20701;-76
2021/03/18 10:37:33;;;;;;;9.48;5.25;;;6.90;99.90;;;;;;4869832;29;20314;-76
2021/03/18 10:40:24;;;;;;;14.63;5.90;;;7.00;99.90;;;;;;4861427;29;20634;-76
2021/03/18 10:42:57;;;;;;;8.75;5.60;;;7.00;99.90;;;;;;4872880;29;20218;-76
2021/03/18 10:45:25;;;;;;;9.38;5.00;;;7.00;99.90;;;;;;4859670;29;20207;-76
2021/03/18 10:47:54;;;;;;;14.82;6.22;;;7.10;99.90;;;;;;4869169;29;20226;-76
2021/03/18 10:50:25;;;;;;;16.52;5.93;;;7.10;99.90;;;;;;4871209;29;20209;-76
2021/03/18 10:52:57;;;;;;;7.28;5.35;;;7.10;99.90;;;;;;4866428;29;20261;-76
2021/03/18 10:55:27;;;;;;;8.50;5.10;;;7.00;99.90;;;;;;4860116;29;20235;-76
2021/03/18 10:57:59;;;;;;;12.50;5.88;;;7.00;99.90;;;;;;4870565;29;20306;-76
2021/03/18 11:00:27;;;;;;;7.47;5.38;;;6.90;99.90;;;;;;4858674;29;20619;-76
2021/03/18 11:03:00;;;;;;;6.95;4.90;;;7.00;99.90;;;;;;4872492;29;20712;-76
2021/03/18 11:05:33;;;;;;;8.60;5.75;;;7.10;99.90;;;;;;4877975;29;21056;-76
2021/03/18 11:08:00;;;;;;;12.98;5.82;;;7.20;99.90;;;;;;4872228;29;20218;-76
2021/03/18 11:10:34;;;;;;;10.32;5.45;;;7.30;99.90;;;;;;4859715;29;20192;-76
2021/03/18 11:13:05;;;;;;;7.47;6.68;;;7.30;99.90;;;;;;4862382;29;20223;-76
2021/03/18 11:15:51;;;;;;;7.75;6.22;;;7.40;99.90;;;;;;4860050;29;20218;-76
2021/03/18 11:18:26;;;;;;;13.07;7.10;;;7.30;99.90;;;;;;4873685;29;20598;-76
2021/03/18 11:20:54;;;;;;;8.48;6.75;;;7.30;99.90;;;;;;4878147;29;20213;-76
2021/03/18 11:23:34;;;;;;;11.20;6.50;;;7.20;99.90;;;;;;4862453;29;20219;-76
2021/03/18 11:26:04;;;;;;;9.77;6.18;;;7.20;99.90;;;;;;4866036;29;20610;-76
2021/03/18 11:28:31;;;;;;;8.52;5.63;;;7.20;99.90;;;;;;4866029;29;20227;-76
2021/03/18 11:30:59;;;;;;;10.55;6.70;;;7.30;99.90;;;;;;4860792;29;20214;-76
2021/03/18 11:33:33;;;;;;;6.78;6.13;;;7.20;99.90;;;;;;4877456;29;20227;-76
2021/03/18 11:36:04;;;;;;;11.32;6.13;;;7.20;99.90;;;;;;4870824;29;20210;-76
2021/03/18 11:38:31;;;;;;;8.60;6.00;;;7.20;99.90;;;;;;4869619;29;20227;-76
2021/03/18 11:40:58;;;;;;;10.65;6.70;;;7.20;99.90;;;;;;4881458;29;20218;-76
2021/03/18 11:43:27;;;;;;;7.95;6.47;;;7.10;99.90;;;;;;4860901;29;20278;-76
2021/03/18 11:45:57;;;;;;;12.52;7.35;;;7.10;99.90;;;;;;4869108;29;20211;-76
2021/03/18 11:48:24;;;;;;;11.32;7.82;;;7.10;99.90;;;;;;4867333;29;21466;-76
2021/03/18 11:50:51;;;;;;;8.10;6.97;;;7.20;99.90;;;;;;4866205;29;20205;-76
2021/03/18 11:53:18;;;;;;;13.65;7.45;;;7.20;99.90;;;;;;4864728;29;20644;-76
2021/03/18 11:55:47;;;;;;;21.02;8.98;;;7.20;99.90;;;;;;4850054;29;20302;-76
2021/03/18 11:58:13;;;;;;;10.77;7.88;;;7.20;99.90;;;;;;4864424;29;20697;-76
2021/03/18 12:00:40;;;;;;;13.15;7.47;;;7.20;99.90;;;;;;4863038;29;20754;-76
2021/03/18 12:03:09;;;;;;;12.60;8.55;;;7.30;99.90;;;;;;4855757;29;20211;-76
2021/03/18 12:05:40;;;;;;;9.88;7.40;;;7.20;99.90;;;;;;4872531;29;20584;-76
2021/03/18 12:08:09;;;;;;;10.60;8.60;;;7.20;99.90;;;;;;4863998;29;20263;-76
2021/03/18 12:10:50;;;;;;;13.23;8.20;;;7.30;99.90;;;;;;4864655;29;20207;-76
2021/03/18 12:13:16;;;;;;;10.02;6.53;;;7.30;99.90;;;;;;4871065;29;20251;-76
2021/03/18 12:15:46;;;;;;;11.45;7.13;;;7.40;99.90;;;;;;4848744;29;20218;-76
2021/03/18 12:18:13;;;;;;;11.65;7.40;;;7.40;99.90;;;;;;4871404;29;20242;-76
2021/03/18 12:20:40;;;;;;;7.20;5.82;;;7.30;99.90;;;;;;4871903;29;20219;-76
2021/03/18 12:23:07;;;;;;;8.98;5.95;;;7.50;98.60;;;;;;4862944;29;20258;-76
2021/03/18 12:25:33;;;;;;;7.65;5.68;;;7.70;99.90;;;;;;4879868;29;20210;-76
2021/03/18 12:28:00;;;;;;;8.80;6.97;;;7.80;99.90;;;;;;4879360;29;20298;-76
2021/03/18 12:30:27;;;;;;;9.43;5.95;;;7.70;99.90;;;;;;4874693;29;20191;-76
2021/03/18 12:32:54;;;;;;;10.05;7.38;;;7.70;99.10;;;;;;4860363;29;20237;-76
2021/03/18 12:35:25;;;;;;;14.38;6.50;;;7.70;99.90;;;;;;4871187;29;20302;-76
2021/03/18 12:37:52;;;;;;;11.55;5.30;;;7.60;99.90;;;;;;4861447;29;20239;-76
2021/03/18 12:40:21;;;;;;;8.57;6.03;;;7.70;95.40;;;;;;4871241;29;20221;-76
2021/03/18 12:42:48;;;;;;;7.90;6.63;;;7.80;99.00;;;;;;4858966;29;20219;-76
2021/03/18 12:45:19;;;;;;;12.80;6.57;;;7.60;99.90;;;;;;4867914;29;20207;-76
2021/03/18 12:47:46;;;;;;;8.57;5.57;;;7.70;98.80;;;;;;4875796;29;20674;-76
2021/03/18 12:50:17;;;;;;;8.30;5.38;;;7.70;98.90;;;;;;4860868;29;20199;-76
2021/03/18 12:52:44;;;;;;;7.97;5.75;;;7.70;98.70;;;;;;4846655;29;20732;-76
2021/03/18 12:55:11;;;;;;;13.68;5.72;;;7.60;99.90;;;;;;4879711;29;20636;-76
2021/03/18 12:57:56;;;;;;;6.68;5.10;;;7.50;99.90;;;;;;4876646;29;20237;-76
2021/03/18 13:00:27;;;;;;;11.00;6.47;;;7.50;97.60;;;;;;4880301;29;20221;-76
2021/03/18 13:02:53;;;;;;;11.27;5.53;;;7.50;99.90;;;;;;4862746;29;20313;-76